Columbus, Ohio
Traffic Map
Current Weather Conditions
Columbus, Ohio
Overcast Light Rain
Overcast
77°
Feels Like: 79°
Wind Chill: 77° Ceiling: 6500
Heat Index: 79° Visibility: 10mi
Dew Point: 66° Wind: 9mph
Humidity: 69% Direction: 280° (W)
Pressure: 29.93in Gusts: 0mph
Raw Report DataKCMH 022051Z 28008KT 10SM -RA FEW032 BKN065 OVC110 25/19 A2993 RMK AO2 RAB03 SLP127 P0000 60000 T02500189 58002
Traffic Incident Summary
Active as of:
Severity:
Category:
InformationThere was an issue retrieving the traffic information for this location. Please try a different location or try again shortly.
Advertisements
Track Severe Weather on mobile